sensor_id;sensor_type;location;lat;lon;timestamp;P1;durP1;ratioP1;P2;durP2;ratioP2
67869;SDS011;54673;52.262;6.830;2023-04-22T00:00:11;2.37;;;2.00;;
67869;SDS011;54673;52.262;6.830;2023-04-22T00:02:37;2.35;;;2.15;;
67869;SDS011;54673;52.262;6.830;2023-04-22T00:05:04;2.93;;;2.13;;
67869;SDS011;54673;52.262;6.830;2023-04-22T00:07:31;2.97;;;1.95;;
67869;SDS011;54673;52.262;6.830;2023-04-22T00:09:56;2.22;;;1.90;;
67869;SDS011;54673;52.262;6.830;2023-04-22T00:12:22;4.73;;;2.00;;
67869;SDS011;54673;52.262;6.830;2023-04-22T00:14:47;1.90;;;1.80;;
67869;SDS011;54673;52.262;6.830;2023-04-22T00:17:13;2.13;;;1.92;;
67869;SDS011;54673;52.262;6.830;2023-04-22T00:19:39;2.23;;;1.80;;
67869;SDS011;54673;52.262;6.830;2023-04-22T00:22:05;2.50;;;2.00;;
67869;SDS011;54673;52.262;6.830;2023-04-22T00:24:31;4.67;;;1.73;;
67869;SDS011;54673;52.262;6.830;2023-04-22T00:26:57;2.38;;;1.95;;
67869;SDS011;54673;52.262;6.830;2023-04-22T00:29:23;2.17;;;1.97;;
67869;SDS011;54673;52.262;6.830;2023-04-22T00:31:49;3.17;;;2.10;;
67869;SDS011;54673;52.262;6.830;2023-04-22T00:34:15;2.07;;;1.57;;
67869;SDS011;54673;52.262;6.830;2023-04-22T00:36:41;2.38;;;2.17;;
67869;SDS011;54673;52.262;6.830;2023-04-22T00:39:07;2.67;;;1.85;;
67869;SDS011;54673;52.262;6.830;2023-04-22T00:41:33;2.00;;;1.80;;
67869;SDS011;54673;52.262;6.830;2023-04-22T00:43:59;2.00;;;1.70;;
67869;SDS011;54673;52.262;6.830;2023-04-22T00:46:25;2.10;;;1.90;;
67869;SDS011;54673;52.262;6.830;2023-04-22T00:48:51;2.13;;;1.80;;
67869;SDS011;54673;52.262;6.830;2023-04-22T00:51:17;2.67;;;2.00;;
67869;SDS011;54673;52.262;6.830;2023-04-22T00:53:42;1.73;;;1.60;;
67869;SDS011;54673;52.262;6.830;2023-04-22T00:56:08;2.93;;;1.90;;
67869;SDS011;54673;52.262;6.830;2023-04-22T00:58:35;4.40;;;2.10;;
67869;SDS011;54673;52.262;6.830;2023-04-22T01:01:00;2.10;;;1.90;;
67869;SDS011;54673;52.262;6.830;2023-04-22T01:03:26;2.03;;;1.73;;
67869;SDS011;54673;52.262;6.830;2023-04-22T01:05:54;2.28;;;1.90;;
67869;SDS011;54673;52.262;6.830;2023-04-22T01:08:21;2.70;;;2.10;;
67869;SDS011;54673;52.262;6.830;2023-04-22T01:10:51;2.33;;;1.83;;
67869;SDS011;54673;52.262;6.830;2023-04-22T01:13:17;1.98;;;1.77;;
67869;SDS011;54673;52.262;6.830;2023-04-22T01:15:43;1.97;;;1.77;;
67869;SDS011;54673;52.262;6.830;2023-04-22T01:18:08;2.80;;;1.88;;
67869;SDS011;54673;52.262;6.830;2023-04-22T01:20:34;2.50;;;1.57;;
67869;SDS011;54673;52.262;6.830;2023-04-22T01:23:01;1.75;;;1.60;;
67869;SDS011;54673;52.262;6.830;2023-04-22T01:25:28;1.95;;;1.60;;
67869;SDS011;54673;52.262;6.830;2023-04-22T01:27:54;1.77;;;1.67;;
67869;SDS011;54673;52.262;6.830;2023-04-22T01:30:20;2.10;;;1.65;;
67869;SDS011;54673;52.262;6.830;2023-04-22T01:32:46;2.03;;;1.70;;
67869;SDS011;54673;52.262;6.830;2023-04-22T01:35:12;2.00;;;1.80;;
67869;SDS011;54673;52.262;6.830;2023-04-22T01:37:38;1.92;;;1.73;;
67869;SDS011;54673;52.262;6.830;2023-04-22T01:40:04;2.43;;;2.20;;
67869;SDS011;54673;52.262;6.830;2023-04-22T01:42:31;2.05;;;1.83;;
67869;SDS011;54673;52.262;6.830;2023-04-22T01:44:57;2.07;;;1.80;;
67869;SDS011;54673;52.262;6.830;2023-04-22T01:47:23;2.20;;;1.83;;
67869;SDS011;54673;52.262;6.830;2023-04-22T01:49:49;2.30;;;1.87;;
67869;SDS011;54673;52.262;6.830;2023-04-22T01:52:16;4.00;;;1.80;;
67869;SDS011;54673;52.262;6.830;2023-04-22T01:54:41;2.08;;;1.88;;
67869;SDS011;54673;52.262;6.830;2023-04-22T01:57:08;2.10;;;1.90;;
67869;SDS011;54673;52.262;6.830;2023-04-22T01:59:35;1.88;;;1.67;;
67869;SDS011;54673;52.262;6.830;2023-04-22T02:02:01;1.63;;;1.50;;
67869;SDS011;54673;52.262;6.830;2023-04-22T02:04:27;1.65;;;1.40;;
67869;SDS011;54673;52.262;6.830;2023-04-22T02:06:52;1.40;;;1.30;;
67869;SDS011;54673;52.262;6.830;2023-04-22T02:09:18;2.60;;;1.80;;
67869;SDS011;54673;52.262;6.830;2023-04-22T02:11:43;1.60;;;1.50;;
67869;SDS011;54673;52.262;6.830;2023-04-22T02:14:09;1.40;;;1.30;;
67869;SDS011;54673;52.262;6.830;2023-04-22T02:16:35;1.92;;;1.50;;
67869;SDS011;54673;52.262;6.830;2023-04-22T02:19:00;1.37;;;1.20;;
67869;SDS011;54673;52.262;6.830;2023-04-22T02:21:29;2.33;;;1.40;;
67869;SDS011;54673;52.262;6.830;2023-04-22T02:23:56;1.45;;;1.35;;
67869;SDS011;54673;52.262;6.830;2023-04-22T02:26:22;1.55;;;1.17;;
67869;SDS011;54673;52.262;6.830;2023-04-22T02:28:48;1.50;;;1.40;;
67869;SDS011;54673;52.262;6.830;2023-04-22T02:31:14;1.65;;;1.45;;
67869;SDS011;54673;52.262;6.830;2023-04-22T02:33:40;1.50;;;1.40;;
67869;SDS011;54673;52.262;6.830;2023-04-22T02:36:05;1.67;;;1.20;;
67869;SDS011;54673;52.262;6.830;2023-04-22T02:38:31;1.63;;;1.52;;
67869;SDS011;54673;52.262;6.830;2023-04-22T02:40:56;1.40;;;1.30;;
67869;SDS011;54673;52.262;6.830;2023-04-22T02:43:22;2.28;;;1.40;;
67869;SDS011;54673;52.262;6.830;2023-04-22T02:45:48;1.40;;;1.30;;
67869;SDS011;54673;52.262;6.830;2023-04-22T02:48:13;1.50;;;1.40;;
67869;SDS011;54673;52.262;6.830;2023-04-22T02:50:39;1.60;;;1.50;;
67869;SDS011;54673;52.262;6.830;2023-04-22T02:53:04;1.57;;;1.10;;
67869;SDS011;54673;52.262;6.830;2023-04-22T02:55:30;1.30;;;1.20;;
67869;SDS011;54673;52.262;6.830;2023-04-22T02:57:55;1.40;;;1.10;;
67869;SDS011;54673;52.262;6.830;2023-04-22T03:00:21;1.10;;;1.00;;
67869;SDS011;54673;52.262;6.830;2023-04-22T03:02:47;1.40;;;1.30;;
67869;SDS011;54673;52.262;6.830;2023-04-22T03:05:12;1.73;;;1.63;;
67869;SDS011;54673;52.262;6.830;2023-04-22T03:07:38;1.50;;;1.38;;
67869;SDS011;54673;52.262;6.830;2023-04-22T03:10:04;1.53;;;1.43;;
67869;SDS011;54673;52.262;6.830;2023-04-22T03:12:30;1.40;;;1.30;;
67869;SDS011;54673;52.262;6.830;2023-04-22T03:14:55;1.50;;;1.40;;
67869;SDS011;54673;52.262;6.830;2023-04-22T03:17:21;1.30;;;1.20;;
67869;SDS011;54673;52.262;6.830;2023-04-22T03:19:47;1.60;;;1.17;;
67869;SDS011;54673;52.262;6.830;2023-04-22T03:22:12;1.20;;;1.10;;
67869;SDS011;54673;52.262;6.830;2023-04-22T03:24:38;1.10;;;1.00;;
67869;SDS011;54673;52.262;6.830;2023-04-22T03:27:03;1.27;;;1.13;;
67869;SDS011;54673;52.262;6.830;2023-04-22T03:29:29;1.75;;;1.60;;
67869;SDS011;54673;52.262;6.830;2023-04-22T03:31:55;1.50;;;1.33;;
67869;SDS011;54673;52.262;6.830;2023-04-22T03:34:20;1.60;;;1.50;;
67869;SDS011;54673;52.262;6.830;2023-04-22T03:36:47;1.30;;;1.20;;
67869;SDS011;54673;52.262;6.830;2023-04-22T03:39:12;1.20;;;1.10;;
67869;SDS011;54673;52.262;6.830;2023-04-22T03:41:38;1.20;;;1.10;;
67869;SDS011;54673;52.262;6.830;2023-04-22T03:44:03;1.97;;;1.50;;
67869;SDS011;54673;52.262;6.830;2023-04-22T03:46:29;1.35;;;1.25;;
67869;SDS011;54673;52.262;6.830;2023-04-22T03:48:54;1.40;;;1.30;;
67869;SDS011;54673;52.262;6.830;2023-04-22T03:51:20;1.20;;;1.10;;
67869;SDS011;54673;52.262;6.830;2023-04-22T03:53:45;1.63;;;1.20;;
67869;SDS011;54673;52.262;6.830;2023-04-22T03:56:11;1.25;;;1.13;;
67869;SDS011;54673;52.262;6.830;2023-04-22T03:58:36;1.27;;;1.17;;
67869;SDS011;54673;52.262;6.830;2023-04-22T04:01:02;1.20;;;0.97;;
67869;SDS011;54673;52.262;6.830;2023-04-22T04:03:27;1.42;;;1.33;;
67869;SDS011;54673;52.262;6.830;2023-04-22T04:05:53;1.60;;;1.10;;
67869;SDS011;54673;52.262;6.830;2023-04-22T04:08:18;1.37;;;1.27;;
67869;SDS011;54673;52.262;6.830;2023-04-22T04:10:44;1.40;;;1.30;;
67869;SDS011;54673;52.262;6.830;2023-04-22T04:13:10;1.50;;;1.10;;
67869;SDS011;54673;52.262;6.830;2023-04-22T04:15:35;1.73;;;1.63;;
67869;SDS011;54673;52.262;6.830;2023-04-22T04:18:01;1.40;;;1.30;;
67869;SDS011;54673;52.262;6.830;2023-04-22T04:20:27;1.88;;;1.30;;
67869;SDS011;54673;52.262;6.830;2023-04-22T04:22:53;1.23;;;1.13;;
67869;SDS011;54673;52.262;6.830;2023-04-22T04:25:19;1.40;;;1.10;;
67869;SDS011;54673;52.262;6.830;2023-04-22T04:27:45;1.80;;;1.70;;
67869;SDS011;54673;52.262;6.830;2023-04-22T04:30:11;1.50;;;1.40;;
67869;SDS011;54673;52.262;6.830;2023-04-22T04:32:37;1.50;;;1.40;;
67869;SDS011;54673;52.262;6.830;2023-04-22T04:35:03;1.80;;;1.70;;
67869;SDS011;54673;52.262;6.830;2023-04-22T04:37:28;1.40;;;1.30;;
67869;SDS011;54673;52.262;6.830;2023-04-22T04:39:54;1.67;;;1.58;;
67869;SDS011;54673;52.262;6.830;2023-04-22T04:42:23;1.50;;;1.40;;
67869;SDS011;54673;52.262;6.830;2023-04-22T04:44:49;1.55;;;1.30;;
67869;SDS011;54673;52.262;6.830;2023-04-22T04:47:15;1.95;;;1.70;;
67869;SDS011;54673;52.262;6.830;2023-04-22T04:49:41;1.60;;;1.50;;
67869;SDS011;54673;52.262;6.830;2023-04-22T04:52:07;1.60;;;1.50;;
67869;SDS011;54673;52.262;6.830;2023-04-22T04:54:35;1.73;;;1.63;;
67869;SDS011;54673;52.262;6.830;2023-04-22T04:57:01;2.03;;;1.65;;
67869;SDS011;54673;52.262;6.830;2023-04-22T04:59:27;1.92;;;1.73;;
67869;SDS011;54673;52.262;6.830;2023-04-22T05:01:53;1.50;;;1.40;;
67869;SDS011;54673;52.262;6.830;2023-04-22T05:04:18;1.83;;;1.70;;
67869;SDS011;54673;52.262;6.830;2023-04-22T05:06:44;1.83;;;1.73;;
67869;SDS011;54673;52.262;6.830;2023-04-22T05:09:10;1.70;;;1.60;;
67869;SDS011;54673;52.262;6.830;2023-04-22T05:11:36;2.17;;;1.80;;
67869;SDS011;54673;52.262;6.830;2023-04-22T05:14:01;1.60;;;1.50;;
67869;SDS011;54673;52.262;6.830;2023-04-22T05:16:27;2.10;;;1.55;;
67869;SDS011;54673;52.262;6.830;2023-04-22T05:18:53;2.10;;;1.60;;
67869;SDS011;54673;52.262;6.830;2023-04-22T05:21:19;1.80;;;1.57;;
67869;SDS011;54673;52.262;6.830;2023-04-22T05:23:44;1.60;;;1.40;;
67869;SDS011;54673;52.262;6.830;2023-04-22T05:26:10;1.93;;;1.83;;
67869;SDS011;54673;52.262;6.830;2023-04-22T05:28:35;2.07;;;1.70;;
67869;SDS011;54673;52.262;6.830;2023-04-22T05:31:01;1.73;;;1.50;;
67869;SDS011;54673;52.262;6.830;2023-04-22T05:33:26;1.97;;;1.87;;
67869;SDS011;54673;52.262;6.830;2023-04-22T05:35:52;1.80;;;1.57;;
67869;SDS011;54673;52.262;6.830;2023-04-22T05:38:18;2.38;;;1.80;;
67869;SDS011;54673;52.262;6.830;2023-04-22T05:40:43;3.43;;;1.60;;
67869;SDS011;54673;52.262;6.830;2023-04-22T05:43:09;2.60;;;1.85;;
67869;SDS011;54673;52.262;6.830;2023-04-22T05:45:34;2.17;;;1.63;;
67869;SDS011;54673;52.262;6.830;2023-04-22T05:48:00;1.70;;;1.60;;
67869;SDS011;54673;52.262;6.830;2023-04-22T05:50:25;1.65;;;1.45;;
67869;SDS011;54673;52.262;6.830;2023-04-22T05:52:53;1.90;;;1.63;;
67869;SDS011;54673;52.262;6.830;2023-04-22T05:55:18;2.60;;;1.77;;
67869;SDS011;54673;52.262;6.830;2023-04-22T05:57:44;1.63;;;1.33;;
67869;SDS011;54673;52.262;6.830;2023-04-22T06:00:10;1.60;;;1.37;;
67869;SDS011;54673;52.262;6.830;2023-04-22T06:02:35;2.20;;;1.75;;
67869;SDS011;54673;52.262;6.830;2023-04-22T06:05:01;1.70;;;1.30;;
67869;SDS011;54673;52.262;6.830;2023-04-22T06:07:27;2.15;;;1.60;;
67869;SDS011;54673;52.262;6.830;2023-04-22T06:09:52;2.47;;;1.53;;
67869;SDS011;54673;52.262;6.830;2023-04-22T06:12:18;1.80;;;1.58;;
67869;SDS011;54673;52.262;6.830;2023-04-22T06:14:43;1.53;;;1.43;;
67869;SDS011;54673;52.262;6.830;2023-04-22T06:17:09;1.87;;;1.60;;
67869;SDS011;54673;52.262;6.830;2023-04-22T06:19:34;2.00;;;1.65;;
67869;SDS011;54673;52.262;6.830;2023-04-22T06:22:00;2.00;;;1.40;;
67869;SDS011;54673;52.262;6.830;2023-04-22T06:24:26;1.70;;;1.40;;
67869;SDS011;54673;52.262;6.830;2023-04-22T06:26:51;2.40;;;1.40;;
67869;SDS011;54673;52.262;6.830;2023-04-22T06:29:17;1.30;;;1.20;;
67869;SDS011;54673;52.262;6.830;2023-04-22T06:31:43;1.63;;;1.52;;
67869;SDS011;54673;52.262;6.830;2023-04-22T06:34:08;1.43;;;1.33;;
67869;SDS011;54673;52.262;6.830;2023-04-22T06:36:34;2.50;;;1.90;;
67869;SDS011;54673;52.262;6.830;2023-04-22T06:39:03;2.45;;;1.67;;
67869;SDS011;54673;52.262;6.830;2023-04-22T06:41:29;1.70;;;1.50;;
67869;SDS011;54673;52.262;6.830;2023-04-22T06:43:56;1.80;;;1.60;;
67869;SDS011;54673;52.262;6.830;2023-04-22T06:46:21;2.20;;;1.75;;
67869;SDS011;54673;52.262;6.830;2023-04-22T06:48:47;2.57;;;1.70;;
67869;SDS011;54673;52.262;6.830;2023-04-22T06:51:12;1.63;;;1.37;;
67869;SDS011;54673;52.262;6.830;2023-04-22T06:53:38;2.00;;;1.47;;
67869;SDS011;54673;52.262;6.830;2023-04-22T06:56:04;2.00;;;1.80;;
67869;SDS011;54673;52.262;6.830;2023-04-22T06:58:29;1.97;;;1.30;;
67869;SDS011;54673;52.262;6.830;2023-04-22T07:00:55;1.75;;;1.50;;
67869;SDS011;54673;52.262;6.830;2023-04-22T07:03:21;2.10;;;1.90;;
67869;SDS011;54673;52.262;6.830;2023-04-22T07:05:46;2.70;;;1.60;;
67869;SDS011;54673;52.262;6.830;2023-04-22T07:08:12;2.50;;;1.60;;
67869;SDS011;54673;52.262;6.830;2023-04-22T07:10:38;2.50;;;1.45;;
67869;SDS011;54673;52.262;6.830;2023-04-22T07:13:03;2.60;;;1.23;;
67869;SDS011;54673;52.262;6.830;2023-04-22T07:15:29;2.65;;;1.77;;
67869;SDS011;54673;52.262;6.830;2023-04-22T07:17:55;3.30;;;1.47;;
67869;SDS011;54673;52.262;6.830;2023-04-22T07:20:20;3.10;;;1.30;;
67869;SDS011;54673;52.262;6.830;2023-04-22T07:22:46;1.50;;;1.40;;
67869;SDS011;54673;52.262;6.830;2023-04-22T07:25:11;3.30;;;1.50;;
67869;SDS011;54673;52.262;6.830;2023-04-22T07:27:37;1.63;;;1.33;;
67869;SDS011;54673;52.262;6.830;2023-04-22T07:30:04;3.93;;;1.60;;
67869;SDS011;54673;52.262;6.830;2023-04-22T07:32:31;3.75;;;1.40;;
67869;SDS011;54673;52.262;6.830;2023-04-22T07:34:57;3.80;;;1.53;;
67869;SDS011;54673;52.262;6.830;2023-04-22T07:37:23;2.60;;;1.60;;
67869;SDS011;54673;52.262;6.830;2023-04-22T07:39:48;3.80;;;1.50;;
67869;SDS011;54673;52.262;6.830;2023-04-22T07:42:14;1.60;;;1.10;;
67869;SDS011;54673;52.262;6.830;2023-04-22T07:44:40;1.73;;;1.60;;
67869;SDS011;54673;52.262;6.830;2023-04-22T07:47:05;1.93;;;1.20;;
67869;SDS011;54673;52.262;6.830;2023-04-22T07:49:32;1.60;;;1.30;;
67869;SDS011;54673;52.262;6.830;2023-04-22T07:51:58;1.63;;;1.42;;
67869;SDS011;54673;52.262;6.830;2023-04-22T07:54:23;2.90;;;1.40;;
67869;SDS011;54673;52.262;6.830;2023-04-22T07:56:49;2.90;;;1.30;;
67869;SDS011;54673;52.262;6.830;2023-04-22T07:59:15;1.60;;;1.20;;
67869;SDS011;54673;52.262;6.830;2023-04-22T08:01:40;1.40;;;1.27;;
67869;SDS011;54673;52.262;6.830;2023-04-22T08:04:06;1.80;;;1.53;;
67869;SDS011;54673;52.262;6.830;2023-04-22T08:06:32;1.60;;;1.40;;
67869;SDS011;54673;52.262;6.830;2023-04-22T08:08:57;2.22;;;1.83;;
67869;SDS011;54673;52.262;6.830;2023-04-22T08:11:23;1.70;;;1.60;;
67869;SDS011;54673;52.262;6.830;2023-04-22T08:13:48;2.67;;;1.65;;
67869;SDS011;54673;52.262;6.830;2023-04-22T08:16:14;3.23;;;1.63;;
67869;SDS011;54673;52.262;6.830;2023-04-22T08:18:40;2.50;;;1.70;;
67869;SDS011;54673;52.262;6.830;2023-04-22T08:21:05;5.80;;;1.83;;
67869;SDS011;54673;52.262;6.830;2023-04-22T08:23:31;1.73;;;1.58;;
67869;SDS011;54673;52.262;6.830;2023-04-22T08:25:56;3.13;;;1.63;;
67869;SDS011;54673;52.262;6.830;2023-04-22T08:28:22;5.30;;;1.60;;
67869;SDS011;54673;52.262;6.830;2023-04-22T08:30:48;1.60;;;1.20;;
67869;SDS011;54673;52.262;6.830;2023-04-22T08:33:14;2.10;;;1.40;;
67869;SDS011;54673;52.262;6.830;2023-04-22T08:35:40;2.33;;;1.40;;
67869;SDS011;54673;52.262;6.830;2023-04-22T08:38:06;2.43;;;1.20;;
67869;SDS011;54673;52.262;6.830;2023-04-22T08:40:32;2.17;;;1.30;;
67869;SDS011;54673;52.262;6.830;2023-04-22T08:42:58;1.60;;;1.30;;
67869;SDS011;54673;52.262;6.830;2023-04-22T08:45:24;1.77;;;1.23;;
67869;SDS011;54673;52.262;6.830;2023-04-22T08:47:50;3.23;;;1.77;;
67869;SDS011;54673;52.262;6.830;2023-04-22T08:50:17;2.85;;;1.85;;
67869;SDS011;54673;52.262;6.830;2023-04-22T08:52:45;2.53;;;2.30;;
67869;SDS011;54673;52.262;6.830;2023-04-22T08:55:10;2.93;;;2.33;;
67869;SDS011;54673;52.262;6.830;2023-04-22T08:57:37;3.50;;;2.33;;
67869;SDS011;54673;52.262;6.830;2023-04-22T09:00:04;3.80;;;2.78;;
67869;SDS011;54673;52.262;6.830;2023-04-22T09:02:31;5.60;;;2.75;;
67869;SDS011;54673;52.262;6.830;2023-04-22T09:04:56;3.30;;;2.83;;
67869;SDS011;54673;52.262;6.830;2023-04-22T09:07:24;2.92;;;2.40;;
67869;SDS011;54673;52.262;6.830;2023-04-22T09:09:52;4.10;;;2.90;;
67869;SDS011;54673;52.262;6.830;2023-04-22T09:12:19;3.47;;;2.70;;
67869;SDS011;54673;52.262;6.830;2023-04-22T09:14:45;4.95;;;2.75;;
67869;SDS011;54673;52.262;6.830;2023-04-22T09:17:13;3.33;;;2.70;;
67869;SDS011;54673;52.262;6.830;2023-04-22T09:19:40;3.78;;;2.92;;
67869;SDS011;54673;52.262;6.830;2023-04-22T09:22:08;3.40;;;2.57;;
67869;SDS011;54673;52.262;6.830;2023-04-22T09:24:42;3.65;;;2.60;;
67869;SDS011;54673;52.262;6.830;2023-04-22T09:27:13;5.57;;;2.88;;
67869;SDS011;54673;52.262;6.830;2023-04-22T09:29:46;3.70;;;2.80;;
67869;SDS011;54673;52.262;6.830;2023-04-22T09:32:13;5.25;;;2.85;;
67869;SDS011;54673;52.262;6.830;2023-04-22T09:34:47;3.72;;;2.70;;
67869;SDS011;54673;52.262;6.830;2023-04-22T09:37:17;2.97;;;2.53;;
67869;SDS011;54673;52.262;6.830;2023-04-22T09:39:44;3.72;;;2.50;;
67869;SDS011;54673;52.262;6.830;2023-04-22T09:42:12;4.25;;;2.50;;
67869;SDS011;54673;52.262;6.830;2023-04-22T09:44:38;4.17;;;2.50;;
67869;SDS011;54673;52.262;6.830;2023-04-22T09:47:04;2.73;;;2.17;;
67869;SDS011;54673;52.262;6.830;2023-04-22T09:49:30;3.90;;;2.60;;
67869;SDS011;54673;52.262;6.830;2023-04-22T09:52:01;4.47;;;2.35;;
67869;SDS011;54673;52.262;6.830;2023-04-22T09:54:27;2.47;;;2.17;;
67869;SDS011;54673;52.262;6.830;2023-04-22T09:56:52;4.07;;;2.50;;
67869;SDS011;54673;52.262;6.830;2023-04-22T09:59:22;3.53;;;2.40;;
67869;SDS011;54673;52.262;6.830;2023-04-22T10:01:52;2.70;;;2.43;;
67869;SDS011;54673;52.262;6.830;2023-04-22T10:04:24;3.50;;;2.50;;
67869;SDS011;54673;52.262;6.830;2023-04-22T10:06:52;2.83;;;2.25;;
67869;SDS011;54673;52.262;6.830;2023-04-22T10:09:20;4.93;;;2.80;;
67869;SDS011;54673;52.262;6.830;2023-04-22T10:11:48;3.95;;;2.42;;
67869;SDS011;54673;52.262;6.830;2023-04-22T10:14:15;3.88;;;2.58;;
67869;SDS011;54673;52.262;6.830;2023-04-22T10:16:42;3.47;;;2.30;;
67869;SDS011;54673;52.262;6.830;2023-04-22T10:19:12;3.10;;;2.25;;
67869;SDS011;54673;52.262;6.830;2023-04-22T10:21:42;4.20;;;2.60;;
67869;SDS011;54673;52.262;6.830;2023-04-22T10:24:15;3.47;;;2.23;;
67869;SDS011;54673;52.262;6.830;2023-04-22T10:26:58;4.22;;;2.60;;
67869;SDS011;54673;52.262;6.830;2023-04-22T10:29:27;4.40;;;3.20;;
67869;SDS011;54673;52.262;6.830;2023-04-22T10:34:41;3.15;;;2.35;;
67869;SDS011;54673;52.262;6.830;2023-04-22T10:37:08;7.73;;;3.07;;
67869;SDS011;54673;52.262;6.830;2023-04-22T10:39:35;3.30;;;2.47;;
67869;SDS011;54673;52.262;6.830;2023-04-22T10:47:25;4.97;;;2.20;;
67869;SDS011;54673;52.262;6.830;2023-04-22T10:52:37;3.67;;;2.50;;
67869;SDS011;54673;52.262;6.830;2023-04-22T10:55:04;2.60;;;2.05;;
67869;SDS011;54673;52.262;6.830;2023-04-22T10:57:31;4.32;;;2.53;;
67869;SDS011;54673;52.262;6.830;2023-04-22T11:00:14;7.27;;;2.10;;
67869;SDS011;54673;52.262;6.830;2023-04-22T11:05:29;3.17;;;2.50;;
67869;SDS011;54673;52.262;6.830;2023-04-22T11:07:59;4.18;;;2.70;;
67869;SDS011;54673;52.262;6.830;2023-04-22T11:11:06;3.15;;;2.70;;
67869;SDS011;54673;52.262;6.830;2023-04-22T11:13:32;7.17;;;2.73;;
67869;SDS011;54673;52.262;6.830;2023-04-22T11:15:57;4.88;;;2.65;;
67869;SDS011;54673;52.262;6.830;2023-04-22T11:18:24;2.90;;;2.60;;
67869;SDS011;54673;52.262;6.830;2023-04-22T11:20:51;6.53;;;3.30;;
67869;SDS011;54673;52.262;6.830;2023-04-22T11:23:24;4.07;;;2.42;;
67869;SDS011;54673;52.262;6.830;2023-04-22T11:25:54;3.30;;;2.30;;
67869;SDS011;54673;52.262;6.830;2023-04-22T11:28:21;4.07;;;2.30;;
67869;SDS011;54673;52.262;6.830;2023-04-22T11:30:47;3.45;;;2.40;;
67869;SDS011;54673;52.262;6.830;2023-04-22T11:33:14;4.90;;;2.40;;
67869;SDS011;54673;52.262;6.830;2023-04-22T11:35:40;3.03;;;2.20;;
67869;SDS011;54673;52.262;6.830;2023-04-22T11:38:06;3.08;;;2.20;;
67869;SDS011;54673;52.262;6.830;2023-04-22T11:43:04;6.63;;;2.20;;
67869;SDS011;54673;52.262;6.830;2023-04-22T11:45:31;3.22;;;1.90;;
67869;SDS011;54673;52.262;6.830;2023-04-22T11:47:59;3.45;;;2.10;;
67869;SDS011;54673;52.262;6.830;2023-04-22T11:50:26;4.87;;;2.10;;
67869;SDS011;54673;52.262;6.830;2023-04-22T11:52:58;2.83;;;2.10;;
67869;SDS011;54673;52.262;6.830;2023-04-22T11:55:32;4.22;;;2.10;;
67869;SDS011;54673;52.262;6.830;2023-04-22T11:58:00;3.43;;;2.10;;
67869;SDS011;54673;52.262;6.830;2023-04-22T12:00:30;8.32;;;1.90;;
67869;SDS011;54673;52.262;6.830;2023-04-22T12:03:01;2.15;;;1.95;;
67869;SDS011;54673;52.262;6.830;2023-04-22T12:05:32;3.03;;;1.93;;
67869;SDS011;54673;52.262;6.830;2023-04-22T12:08:09;2.40;;;1.80;;
67869;SDS011;54673;52.262;6.830;2023-04-22T12:10:43;4.78;;;1.95;;
67869;SDS011;54673;52.262;6.830;2023-04-22T12:13:20;2.80;;;2.23;;
67869;SDS011;54673;52.262;6.830;2023-04-22T12:15:47;1.80;;;1.70;;
67869;SDS011;54673;52.262;6.830;2023-04-22T12:18:26;2.58;;;1.80;;
67869;SDS011;54673;52.262;6.830;2023-04-22T12:23:41;3.17;;;2.00;;
67869;SDS011;54673;52.262;6.830;2023-04-22T12:26:07;2.92;;;2.00;;
67869;SDS011;54673;52.262;6.830;2023-04-22T12:28:33;11.77;;;2.20;;
67869;SDS011;54673;52.262;6.830;2023-04-22T12:30:58;5.53;;;2.20;;
67869;SDS011;54673;52.262;6.830;2023-04-22T12:33:24;3.60;;;1.73;;
67869;SDS011;54673;52.262;6.830;2023-04-22T12:35:49;12.03;;;2.10;;
67869;SDS011;54673;52.262;6.830;2023-04-22T12:38:16;6.47;;;2.30;;
67869;SDS011;54673;52.262;6.830;2023-04-22T12:40:42;4.63;;;2.40;;
67869;SDS011;54673;52.262;6.830;2023-04-22T12:43:08;9.00;;;1.80;;
67869;SDS011;54673;52.262;6.830;2023-04-22T12:45:33;2.80;;;2.00;;
67869;SDS011;54673;52.262;6.830;2023-04-22T12:47:59;5.57;;;1.95;;
67869;SDS011;54673;52.262;6.830;2023-04-22T12:50:25;2.53;;;1.80;;
67869;SDS011;54673;52.262;6.830;2023-04-22T12:52:50;6.85;;;2.10;;
67869;SDS011;54673;52.262;6.830;2023-04-22T12:55:16;2.67;;;1.80;;
67869;SDS011;54673;52.262;6.830;2023-04-22T12:57:43;3.10;;;2.10;;
67869;SDS011;54673;52.262;6.830;2023-04-22T13:00:09;4.07;;;2.07;;
67869;SDS011;54673;52.262;6.830;2023-04-22T13:02:38;3.03;;;2.10;;
67869;SDS011;54673;52.262;6.830;2023-04-22T13:05:05;3.08;;;1.67;;
67869;SDS011;54673;52.262;6.830;2023-04-22T13:07:31;3.17;;;1.90;;
67869;SDS011;54673;52.262;6.830;2023-04-22T13:09:56;9.50;;;2.15;;
67869;SDS011;54673;52.262;6.830;2023-04-22T13:12:22;5.20;;;1.80;;
67869;SDS011;54673;52.262;6.830;2023-04-22T13:14:48;10.73;;;2.00;;
67869;SDS011;54673;52.262;6.830;2023-04-22T13:17:13;3.03;;;2.20;;
67869;SDS011;54673;52.262;6.830;2023-04-22T13:19:39;2.83;;;1.90;;
67869;SDS011;54673;52.262;6.830;2023-04-22T13:22:05;3.43;;;1.80;;
67869;SDS011;54673;52.262;6.830;2023-04-22T13:24:30;4.45;;;1.83;;
67869;SDS011;54673;52.262;6.830;2023-04-22T13:26:56;4.30;;;1.77;;
67869;SDS011;54673;52.262;6.830;2023-04-22T13:29:23;4.72;;;1.77;;
67869;SDS011;54673;52.262;6.830;2023-04-22T13:31:49;2.97;;;1.90;;
67869;SDS011;54673;52.262;6.830;2023-04-22T13:34:15;3.38;;;1.55;;
67869;SDS011;54673;52.262;6.830;2023-04-22T13:36:40;2.43;;;1.60;;
67869;SDS011;54673;52.262;6.830;2023-04-22T13:39:06;2.30;;;1.60;;
67869;SDS011;54673;52.262;6.830;2023-04-22T13:41:32;3.60;;;1.50;;
67869;SDS011;54673;52.262;6.830;2023-04-22T13:43:58;7.07;;;1.80;;
67869;SDS011;54673;52.262;6.830;2023-04-22T13:46:24;2.70;;;1.53;;
67869;SDS011;54673;52.262;6.830;2023-04-22T13:48:51;3.40;;;1.80;;
67869;SDS011;54673;52.262;6.830;2023-04-22T13:51:17;4.38;;;1.67;;
67869;SDS011;54673;52.262;6.830;2023-04-22T13:53:42;3.53;;;1.70;;
67869;SDS011;54673;52.262;6.830;2023-04-22T13:56:08;6.00;;;1.80;;
67869;SDS011;54673;52.262;6.830;2023-04-22T13:58:34;5.63;;;2.78;;
67869;SDS011;54673;52.262;6.830;2023-04-22T14:00:59;3.37;;;3.07;;
67869;SDS011;54673;52.262;6.830;2023-04-22T14:03:25;4.97;;;2.70;;
67869;SDS011;54673;52.262;6.830;2023-04-22T14:05:52;3.70;;;2.40;;
67869;SDS011;54673;52.262;6.830;2023-04-22T14:08:17;5.35;;;2.95;;
67869;SDS011;54673;52.262;6.830;2023-04-22T14:10:43;4.37;;;2.70;;
67869;SDS011;54673;52.262;6.830;2023-04-22T14:13:08;3.17;;;2.40;;
67869;SDS011;54673;52.262;6.830;2023-04-22T14:15:34;4.28;;;2.63;;
67869;SDS011;54673;52.262;6.830;2023-04-22T14:18:00;3.33;;;2.30;;
67869;SDS011;54673;52.262;6.830;2023-04-22T14:20:25;4.78;;;2.80;;
67869;SDS011;54673;52.262;6.830;2023-04-22T14:22:51;4.50;;;2.70;;
67869;SDS011;54673;52.262;6.830;2023-04-22T14:25:16;4.30;;;2.13;;
67869;SDS011;54673;52.262;6.830;2023-04-22T14:27:42;3.03;;;2.63;;
67869;SDS011;54673;52.262;6.830;2023-04-22T14:30:08;4.10;;;2.67;;
67869;SDS011;54673;52.262;6.830;2023-04-22T14:32:34;3.30;;;3.00;;
67869;SDS011;54673;52.262;6.830;2023-04-22T14:34:59;3.75;;;2.67;;
67869;SDS011;54673;52.262;6.830;2023-04-22T14:37:25;3.23;;;2.50;;
67869;SDS011;54673;52.262;6.830;2023-04-22T14:39:51;3.70;;;2.63;;
67869;SDS011;54673;52.262;6.830;2023-04-22T14:42:16;5.23;;;2.73;;
67869;SDS011;54673;52.262;6.830;2023-04-22T14:44:43;3.57;;;2.53;;
67869;SDS011;54673;52.262;6.830;2023-04-22T14:47:09;3.57;;;2.43;;
67869;SDS011;54673;52.262;6.830;2023-04-22T14:49:34;2.77;;;2.20;;
67869;SDS011;54673;52.262;6.830;2023-04-22T14:52:00;2.97;;;2.00;;
67869;SDS011;54673;52.262;6.830;2023-04-22T14:54:26;4.68;;;2.30;;
67869;SDS011;54673;52.262;6.830;2023-04-22T14:56:52;3.30;;;2.20;;
67869;SDS011;54673;52.262;6.830;2023-04-22T14:59:19;3.13;;;2.08;;
67869;SDS011;54673;52.262;6.830;2023-04-22T15:01:46;3.23;;;2.43;;